createdAt,value
2023-02-02T00:01:46.114Z,98986.81
2023-02-02T00:04:18.653Z,98975.78
2023-02-02T00:06:46.940Z,98987.03
2023-02-02T00:09:18.970Z,98989.69
2023-02-02T00:11:48.835Z,98975.25
2023-02-02T00:14:15.959Z,98979.31
2023-02-02T00:16:54.643Z,98981.25
2023-02-02T00:19:33.526Z,98990.75
2023-02-02T00:22:00.596Z,98979.47
2023-02-02T00:24:27.701Z,98972.59
2023-02-02T00:26:57.726Z,98975.03
2023-02-02T00:29:31.320Z,98966.25
2023-02-02T00:31:58.506Z,98971.69
2023-02-02T00:34:25.921Z,98969.09
2023-02-02T00:36:53.339Z,98974.66
2023-02-02T00:39:26.285Z,98968.06
2023-02-02T00:41:53.890Z,98973.06
2023-02-02T00:44:40.036Z,98978.81
2023-02-02T00:47:07.100Z,98970.06
2023-02-02T00:49:34.220Z,98964.94
2023-02-02T00:52:01.362Z,98969.84
2023-02-02T00:54:28.798Z,98977.19
2023-02-02T00:56:55.977Z,98966.56
2023-02-02T00:59:23.075Z,98964.34
2023-02-02T01:01:50.186Z,98971.63
2023-02-02T01:04:17.284Z,98965.16
2023-02-02T01:06:44.338Z,98961.69
2023-02-02T01:09:11.517Z,98971.94
2023-02-02T01:11:38.662Z,98975.91
2023-02-02T01:14:06.064Z,98960.97
2023-02-02T01:16:33.200Z,98968.19
2023-02-02T01:19:00.243Z,98976.66
2023-02-02T01:21:27.312Z,98958.91
2023-02-02T01:23:54.432Z,98967.53
2023-02-02T01:26:21.537Z,98967.31
2023-02-02T01:28:48.853Z,98969.56
2023-02-02T01:31:21.117Z,98965.94
2023-02-02T01:33:50.076Z,98965.09
2023-02-02T01:36:22.474Z,98966.44
2023-02-02T01:38:50.730Z,98967.53
2023-02-02T01:41:23.419Z,98967.47
2023-02-02T01:44:03.192Z,98970.56
2023-02-02T01:46:36.308Z,98971.69
2023-02-02T01:49:20.038Z,98964.66
2023-02-02T01:51:53.582Z,98962.00
2023-02-02T01:54:50.994Z,98968.69
2023-02-02T01:57:26.658Z,98974.19
2023-02-02T01:59:55.962Z,98966.25
2023-02-02T02:02:24.705Z,98960.53
2023-02-02T02:04:52.279Z,98957.34
2023-02-02T02:07:19.361Z,98973.00
2023-02-02T02:09:46.460Z,98964.25
2023-02-02T02:12:16.049Z,98965.25
2023-02-02T02:15:08.652Z,98961.63
2023-02-02T02:17:47.658Z,98971.47
2023-02-02T02:21:01.479Z,98969.81
2023-02-02T02:24:40.625Z,98962.81
2023-02-02T02:28:06.232Z,98966.44
2023-02-02T02:31:07.334Z,98967.38
2023-02-02T02:34:18.362Z,98964.69
2023-02-02T02:37:02.137Z,98960.47
2023-02-02T02:39:43.261Z,98961.31
2023-02-02T02:42:17.212Z,98965.09
2023-02-02T02:44:45.467Z,98963.38
2023-02-02T02:47:12.722Z,98971.69
2023-02-02T02:49:48.174Z,98973.28
2023-02-02T02:52:15.925Z,98974.66
2023-02-02T02:54:50.471Z,98976.31
2023-02-02T02:58:07.500Z,98967.47
2023-02-02T03:00:58.664Z,98972.34
2023-02-02T03:04:06.494Z,98966.47
2023-02-02T03:06:45.033Z,98966.53
2023-02-02T03:09:23.576Z,98967.06
2023-02-02T03:11:50.825Z,98972.56
2023-02-02T03:14:17.974Z,98966.47
2023-02-02T03:16:45.070Z,98969.25
2023-02-02T03:19:12.217Z,98973.75
2023-02-02T03:21:39.281Z,98966.66
2023-02-02T03:24:06.793Z,98965.19
2023-02-02T03:26:34.462Z,98963.47
2023-02-02T03:29:01.879Z,98954.00
2023-02-02T03:31:29.800Z,98955.78
2023-02-02T03:33:57.035Z,98964.66
2023-02-02T03:36:24.336Z,98973.53
2023-02-02T03:38:51.363Z,98963.84
2023-02-02T03:41:18.421Z,98965.56
2023-02-02T03:43:45.567Z,98968.19
2023-02-02T03:46:12.684Z,98967.41
2023-02-02T03:48:40.000Z,98968.16
2023-02-02T03:51:15.255Z,98963.50
2023-02-02T03:53:47.825Z,98970.94
2023-02-02T03:56:16.396Z,98963.13
2023-02-02T03:58:43.606Z,98967.38
2023-02-02T04:01:15.035Z,98963.97
2023-02-02T04:03:42.896Z,98967.25
2023-02-02T04:06:10.017Z,98967.25
2023-02-02T04:08:37.173Z,98963.13
2023-02-02T04:11:04.267Z,98966.69
2023-02-02T04:13:31.306Z,98964.91
2023-02-02T04:16:01.793Z,98959.78
2023-02-02T04:18:29.733Z,98965.25
2023-02-02T04:21:00.708Z,98947.25
2023-02-02T04:23:29.511Z,98957.88
2023-02-02T04:25:57.368Z,98959.78
2023-02-02T04:28:25.620Z,98967.84
2023-02-02T04:30:55.509Z,98963.25
2023-02-02T04:33:24.767Z,98964.78
2023-02-02T04:35:52.117Z,98973.13
2023-02-02T04:38:19.547Z,98971.50
2023-02-02T04:40:48.319Z,98970.19
2023-02-02T04:43:15.997Z,98982.59
2023-02-02T04:45:43.151Z,98975.53
2023-02-02T04:48:10.376Z,98977.03
2023-02-02T04:50:37.907Z,98970.84
2023-02-02T04:53:05.237Z,98971.19
2023-02-02T04:55:36.407Z,98972.84
2023-02-02T04:58:03.772Z,98972.84
2023-02-02T05:00:30.952Z,98966.13
2023-02-02T05:03:00.035Z,98973.25
2023-02-02T05:05:27.262Z,98966.28
2023-02-02T05:07:54.442Z,98977.47
2023-02-02T05:10:21.452Z,98978.53
2023-02-02T05:12:48.507Z,98973.25
2023-02-02T05:15:15.700Z,98972.31
2023-02-02T05:17:42.804Z,98968.91
2023-02-02T05:20:10.930Z,98979.56
2023-02-02T05:22:38.016Z,98973.41
2023-02-02T05:25:06.964Z,98970.50
2023-02-02T05:27:34.864Z,98969.72
2023-02-02T05:30:05.173Z,98968.84
2023-02-02T05:32:32.244Z,98974.25
2023-02-02T05:34:59.285Z,98973.25
2023-02-02T05:37:26.317Z,98969.91
2023-02-02T05:39:53.806Z,98969.56
2023-02-02T05:42:20.849Z,98976.03
2023-02-02T05:44:48.095Z,98969.72
2023-02-02T05:47:15.191Z,98975.59
2023-02-02T05:49:42.291Z,98983.38
2023-02-02T05:52:17.992Z,98976.31
2023-02-02T05:54:45.312Z,98982.91
2023-02-02T05:57:12.632Z,98984.59
2023-02-02T05:59:39.751Z,98972.47
2023-02-02T06:02:06.904Z,98974.91
2023-02-02T06:04:33.937Z,98972.41
2023-02-02T06:07:01.019Z,98975.75
2023-02-02T06:09:28.007Z,98978.56
2023-02-02T06:11:55.035Z,98971.50
2023-02-02T06:14:22.114Z,98979.53
2023-02-02T06:16:49.189Z,98967.28
2023-02-02T06:19:16.246Z,98968.09
2023-02-02T06:21:43.262Z,98973.41
2023-02-02T06:24:10.351Z,98964.00
2023-02-02T06:26:37.527Z,98972.03
2023-02-02T06:29:04.678Z,98967.34
2023-02-02T06:31:31.904Z,98972.63
2023-02-02T06:33:59.987Z,98974.63
2023-02-02T06:36:28.501Z,98970.50
2023-02-02T06:38:57.649Z,98978.06
2023-02-02T06:41:25.926Z,98970.00
2023-02-02T06:43:53.163Z,98954.88
2023-02-02T06:46:20.391Z,98976.59
2023-02-02T06:48:47.427Z,98975.94
2023-02-02T06:51:14.637Z,98970.69
2023-02-02T06:53:41.722Z,98974.97
2023-02-02T06:56:12.991Z,98962.69
2023-02-02T06:58:40.143Z,98959.38
2023-02-02T07:01:14.175Z,98955.13
2023-02-02T07:03:41.422Z,98959.38
2023-02-02T07:06:29.253Z,98952.16
2023-02-02T07:09:01.797Z,98958.53
2023-02-02T07:11:30.953Z,98951.50
2023-02-02T07:13:58.419Z,98961.75
2023-02-02T07:16:25.679Z,98962.03
2023-02-02T07:18:52.975Z,98959.28
2023-02-02T07:21:25.514Z,98963.53
2023-02-02T07:23:52.612Z,98959.84
2023-02-02T07:26:20.675Z,98965.44
2023-02-02T07:28:48.198Z,98944.91
2023-02-02T07:31:25.072Z,98953.66
2023-02-02T07:33:52.825Z,98961.88
2023-02-02T07:36:23.412Z,98957.47
2023-02-02T07:38:57.507Z,98960.13
2023-02-02T07:41:25.383Z,98961.88
2023-02-02T07:43:52.652Z,98957.38
2023-02-02T07:46:21.069Z,98962.81
2023-02-02T07:48:48.634Z,98960.72
2023-02-02T07:51:18.238Z,98965.94
2023-02-02T07:53:51.508Z,98964.47
2023-02-02T07:56:30.535Z,98964.69
2023-02-02T07:58:58.853Z,98973.34
2023-02-02T08:01:28.542Z,98966.53
2023-02-02T08:04:00.542Z,98980.31
2023-02-02T08:06:32.269Z,98976.91
2023-02-02T08:09:01.122Z,98974.16
2023-02-02T08:11:29.447Z,98975.09
2023-02-02T08:13:59.897Z,98975.97
2023-02-02T08:16:31.097Z,98974.25
2023-02-02T08:18:59.143Z,98976.75
2023-02-02T08:21:26.297Z,98982.00
2023-02-02T08:23:54.067Z,98981.31
2023-02-02T08:26:26.675Z,98982.22
2023-02-02T08:28:59.063Z,98977.03
2023-02-02T08:31:34.176Z,98979.38
2023-02-02T08:34:02.041Z,98987.47
2023-02-02T08:36:33.066Z,98990.66
2023-02-02T08:39:08.804Z,98992.56
2023-02-02T08:41:37.009Z,98990.66
2023-02-02T08:44:14.581Z,98992.38
2023-02-02T08:46:42.814Z,99001.09
2023-02-02T08:49:12.376Z,98996.69
2023-02-02T08:51:39.705Z,99002.09
2023-02-02T08:54:06.860Z,98997.91
2023-02-02T08:56:33.990Z,99006.75
2023-02-02T08:59:04.875Z,98999.81
2023-02-02T09:01:35.685Z,98999.06
2023-02-02T09:04:11.968Z,99001.94
2023-02-02T09:06:41.280Z,99002.25
2023-02-02T09:09:13.277Z,99005.84
2023-02-02T09:11:41.578Z,99012.16
2023-02-02T09:14:09.047Z,99006.28
2023-02-02T09:16:36.711Z,99001.97
2023-02-02T09:19:05.262Z,98995.13
2023-02-02T09:21:37.069Z,99013.63
2023-02-02T09:24:13.198Z,99013.66
2023-02-02T09:26:40.838Z,99010.97
2023-02-02T09:29:12.358Z,99019.69
2023-02-02T09:31:39.718Z,99029.59
2023-02-02T09:34:09.863Z,99022.59
2023-02-02T09:36:39.124Z,99033.94
2023-02-02T09:39:08.073Z,99033.34
2023-02-02T09:41:38.092Z,99039.28
2023-02-02T09:44:35.602Z,99043.34
2023-02-02T09:47:34.203Z,99044.22
2023-02-02T09:50:58.507Z,99048.81
2023-02-02T09:53:53.150Z,99054.69
2023-02-02T09:56:36.864Z,99062.19
2023-02-02T09:59:19.206Z,99066.78
2023-02-02T10:01:50.133Z,99070.97
2023-02-02T10:04:31.181Z,99074.88
2023-02-02T10:07:13.221Z,99081.75
2023-02-02T10:09:57.953Z,99085.09
2023-02-02T10:13:22.599Z,99085.97
2023-02-02T10:16:03.644Z,99091.41
2023-02-02T10:18:42.200Z,99093.97
2023-02-02T10:21:26.901Z,99098.53
2023-02-02T10:23:54.706Z,99089.16
2023-02-02T10:26:33.559Z,99101.41
2023-02-02T10:29:26.266Z,99103.88
2023-02-02T10:32:22.701Z,99098.91
2023-02-02T10:35:27.227Z,99105.91
2023-02-02T10:38:28.203Z,99117.28
2023-02-02T10:41:18.375Z,99119.13
2023-02-02T10:44:34.950Z,99119.94
2023-02-02T10:47:06.717Z,99128.94
2023-02-02T10:49:38.093Z,99131.50
2023-02-02T10:52:13.508Z,99141.16
2023-02-02T10:55:10.236Z,99154.59
2023-02-02T10:57:57.510Z,99146.88
2023-02-02T11:00:34.819Z,99157.06
2023-02-02T11:03:04.845Z,99163.00
2023-02-02T11:05:50.903Z,99165.25
2023-02-02T11:08:42.731Z,99166.22
2023-02-02T11:11:35.137Z,99170.53
2023-02-02T11:14:17.137Z,99176.56
2023-02-02T11:16:46.080Z,99182.72
2023-02-02T11:19:19.761Z,99187.03
2023-02-02T11:21:54.258Z,99186.72
2023-02-02T11:24:45.868Z,99198.19
2023-02-02T11:27:20.898Z,99186.19
2023-02-02T11:29:53.698Z,99194.84
2023-02-02T11:32:33.077Z,99189.09
2023-02-02T11:35:08.900Z,99196.63
2023-02-02T11:37:52.053Z,99196.69
2023-02-02T11:40:33.011Z,99200.41
2023-02-02T11:43:14.872Z,99203.09
2023-02-02T11:45:44.857Z,99206.38
2023-02-02T11:48:26.948Z,99203.72
2023-02-02T11:50:57.851Z,99204.75
2023-02-02T11:53:30.580Z,99212.47
2023-02-02T11:56:10.631Z,99213.78
2023-02-02T11:58:50.034Z,99224.19
2023-02-02T12:01:25.388Z,99228.13
2023-02-02T12:03:58.413Z,99225.25
2023-02-02T12:06:38.446Z,99237.34
2023-02-02T12:09:24.789Z,99239.06
2023-02-02T12:12:52.492Z,99246.72
2023-02-02T12:15:47.721Z,99253.59
2023-02-02T12:19:08.566Z,99258.34
2023-02-02T12:22:25.666Z,99263.59
2023-02-02T12:25:14.427Z,99261.63
2023-02-02T12:28:05.164Z,99274.59
2023-02-02T12:31:02.795Z,99274.91
2023-02-02T12:33:58.935Z,99274.56
2023-02-02T12:37:00.373Z,99287.59
2023-02-02T12:39:45.805Z,99300.81
2023-02-02T12:42:30.816Z,99300.53
2023-02-02T12:45:08.573Z,99304.44
2023-02-02T12:47:55.072Z,99312.88
2023-02-02T12:50:32.043Z,99319.81
2023-02-02T12:53:35.572Z,99327.97
2023-02-02T12:56:18.468Z,99333.16
2023-02-02T12:59:15.866Z,99343.69
2023-02-02T13:02:00.740Z,99346.31
2023-02-02T13:05:04.074Z,99351.47
2023-02-02T13:07:47.685Z,99356.88
2023-02-02T13:10:47.421Z,99367.03
2023-02-02T13:13:37.932Z,99377.16
2023-02-02T13:16:14.290Z,99382.88
2023-02-02T13:19:04.752Z,99381.28
2023-02-02T13:21:32.965Z,99386.84
2023-02-02T13:24:05.080Z,99387.41
2023-02-02T13:26:39.045Z,99393.44
2023-02-02T13:29:11.674Z,99402.13
2023-02-02T13:32:06.206Z,99416.16
2023-02-02T13:35:01.667Z,99424.81
2023-02-02T13:37:54.311Z,99431.81
2023-02-02T13:40:38.953Z,99442.47
2023-02-02T13:43:11.891Z,99446.53
2023-02-02T13:46:08.794Z,99452.69
2023-02-02T13:48:41.757Z,99458.19
2023-02-02T13:51:39.094Z,99453.22
2023-02-02T13:54:31.415Z,99461.88
2023-02-02T13:57:26.057Z,99461.50
2023-02-02T14:00:33.666Z,99467.94
2023-02-02T14:03:21.253Z,99470.50
2023-02-02T14:06:25.033Z,99477.81
2023-02-02T14:09:05.524Z,99492.72
2023-02-02T14:11:37.423Z,99491.34
2023-02-02T14:14:33.064Z,99493.91
2023-02-02T14:17:04.863Z,99497.09
2023-02-02T14:19:53.877Z,99494.19
2023-02-02T14:22:42.936Z,99515.94
2023-02-02T14:25:33.566Z,99513.72
2023-02-02T14:28:11.404Z,99525.00
2023-02-02T14:30:40.366Z,99530.00
2023-02-02T14:33:22.654Z,99524.81
2023-02-02T14:35:49.545Z,99542.31
2023-02-02T14:38:44.929Z,99550.00
2023-02-02T14:41:50.393Z,99554.22
2023-02-02T14:44:17.398Z,99561.16
2023-02-02T14:46:49.192Z,99561.63
2023-02-02T14:49:21.658Z,99575.97
2023-02-02T14:52:01.594Z,99581.44
2023-02-02T14:54:42.304Z,99595.28
2023-02-02T14:57:22.981Z,99602.97
2023-02-02T14:59:52.075Z,99611.69
2023-02-02T15:02:34.169Z,99623.00
2023-02-02T15:05:28.882Z,99626.91
2023-02-02T15:08:24.760Z,99630.53
2023-02-02T15:10:59.875Z,99635.25
2023-02-02T15:13:37.756Z,99651.75
2023-02-02T15:16:21.724Z,99661.63
2023-02-02T15:19:02.157Z,99684.97
2023-02-02T15:21:30.674Z,99699.22
2023-02-02T15:23:59.019Z,99708.22
2023-02-02T15:26:37.503Z,99696.31
2023-02-02T15:29:24.447Z,99709.28
2023-02-02T15:31:55.875Z,99718.69
2023-02-02T15:34:31.073Z,99728.69
2023-02-02T15:37:06.025Z,99739.84
2023-02-02T15:39:52.284Z,99736.75
2023-02-02T15:42:44.219Z,99741.16
2023-02-02T15:45:49.346Z,99742.47
2023-02-02T15:48:31.585Z,99747.50
2023-02-02T15:51:14.520Z,99761.34
2023-02-02T15:53:41.454Z,99762.31
2023-02-02T15:56:23.426Z,99771.53
2023-02-02T15:58:54.761Z,99774.75
2023-02-02T16:01:30.452Z,99788.59
2023-02-02T16:04:14.093Z,99796.09
2023-02-02T16:06:41.980Z,99800.34
2023-02-02T16:09:25.166Z,99812.25
2023-02-02T16:11:53.350Z,99816.34
2023-02-02T16:14:20.852Z,99822.19
2023-02-02T16:16:51.059Z,99829.31
2023-02-02T16:19:25.073Z,99840.13
2023-02-02T16:21:56.626Z,99839.38
2023-02-02T16:24:34.890Z,99842.75
2023-02-02T16:27:12.375Z,99854.25
2023-02-02T16:29:42.865Z,99851.72
2023-02-02T16:32:44.267Z,99860.97
2023-02-02T16:35:35.323Z,99868.91
2023-02-02T16:38:32.533Z,99874.03
2023-02-02T16:41:12.836Z,99884.38
2023-02-02T16:43:43.667Z,99893.19
2023-02-02T16:46:16.680Z,99902.69
2023-02-02T16:49:06.256Z,99907.97
2023-02-02T16:51:34.212Z,99903.66
2023-02-02T16:54:07.503Z,99918.13
2023-02-02T16:56:47.555Z,99908.66
2023-02-02T16:59:34.660Z,99931.50
2023-02-02T17:02:18.798Z,99924.66
2023-02-02T17:04:51.057Z,99934.41
2023-02-02T17:07:18.777Z,99931.44
2023-02-02T17:09:48.920Z,99941.44
2023-02-02T17:12:30.491Z,99943.59
2023-02-02T17:15:22.365Z,99942.13
2023-02-02T17:17:49.716Z,99952.38
2023-02-02T17:20:18.527Z,99960.09
2023-02-02T17:22:54.136Z,99972.88
2023-02-02T17:25:52.605Z,99970.75
2023-02-02T17:28:24.186Z,99976.25
2023-02-02T17:31:16.287Z,99986.63
2023-02-02T17:33:43.692Z,99990.63
2023-02-02T17:36:13.428Z,100003.03
2023-02-02T17:38:40.547Z,100013.84
2023-02-02T17:41:10.657Z,100010.31
2023-02-02T17:43:37.735Z,100022.56
2023-02-02T17:46:10.018Z,100020.13
2023-02-02T17:48:37.270Z,100023.38
2023-02-02T17:51:07.173Z,100030.09
2023-02-02T17:53:34.651Z,100024.06
2023-02-02T17:56:01.777Z,100037.94
2023-02-02T17:58:28.796Z,100043.91
2023-02-02T18:00:59.003Z,100044.22
2023-02-02T18:03:34.420Z,100052.56
2023-02-02T18:06:02.677Z,100054.19
2023-02-02T18:08:31.868Z,100059.16
2023-02-02T18:10:59.578Z,100069.47
2023-02-02T18:13:27.587Z,100068.56
2023-02-02T18:15:56.289Z,100075.84
2023-02-02T18:18:23.641Z,100079.91
2023-02-02T18:20:51.585Z,100082.97
2023-02-02T18:23:19.958Z,100091.78
2023-02-02T18:25:47.175Z,100105.50
2023-02-02T18:28:17.333Z,100101.50
2023-02-02T18:30:47.051Z,100104.13
2023-02-02T18:33:19.699Z,100114.00
2023-02-02T18:35:48.045Z,100118.25
2023-02-02T18:38:15.233Z,100125.41
2023-02-02T18:40:42.409Z,100131.00
2023-02-02T18:43:09.801Z,100141.22
2023-02-02T18:45:36.960Z,100137.84
2023-02-02T18:48:04.416Z,100149.06
2023-02-02T18:50:31.480Z,100154.03
2023-02-02T18:52:58.761Z,100147.75
2023-02-02T18:55:26.699Z,100155.84
2023-02-02T18:57:53.993Z,100159.16
2023-02-02T19:00:22.192Z,100156.72
2023-02-02T19:02:49.445Z,100168.09
2023-02-02T19:05:35.644Z,100169.78
2023-02-02T19:08:04.091Z,100182.22
2023-02-02T19:10:31.559Z,100193.50
2023-02-02T19:13:24.166Z,100188.91
2023-02-02T19:15:51.740Z,100211.53
2023-02-02T19:18:22.529Z,100213.59
2023-02-02T19:20:51.662Z,100220.19
2023-02-02T19:23:23.603Z,100226.97
2023-02-02T19:25:54.162Z,100235.81
2023-02-02T19:28:30.023Z,100235.38
2023-02-02T19:31:01.660Z,100240.66
2023-02-02T19:33:47.026Z,100246.09
2023-02-02T19:36:36.391Z,100255.19
2023-02-02T19:39:14.700Z,100262.09
2023-02-02T19:41:43.218Z,100257.69
2023-02-02T19:44:23.016Z,100274.66
2023-02-02T19:46:52.831Z,100268.06
2023-02-02T19:49:34.296Z,100266.91
2023-02-02T19:52:08.161Z,100275.44
2023-02-02T19:54:41.846Z,100276.47
2023-02-02T19:57:33.227Z,100286.91
2023-02-02T20:00:20.730Z,100293.06
2023-02-02T20:03:10.198Z,100295.41
2023-02-02T20:05:48.890Z,100303.97
2023-02-02T20:08:25.662Z,100314.69
2023-02-02T20:10:56.041Z,100319.81
2023-02-02T20:13:31.962Z,100328.28
2023-02-02T20:16:04.202Z,100329.38
2023-02-02T20:18:45.366Z,100343.34
2023-02-02T20:21:27.263Z,100343.06
2023-02-02T20:23:54.424Z,100350.63
2023-02-02T20:26:37.583Z,100349.53
2023-02-02T20:29:45.348Z,100360.06
2023-02-02T20:32:26.374Z,100362.00
2023-02-02T20:34:57.043Z,100369.72
2023-02-02T20:37:30.275Z,100372.78
2023-02-02T20:40:21.651Z,100373.59
2023-02-02T20:42:49.559Z,100380.69
2023-02-02T20:45:18.354Z,100384.84
2023-02-02T20:47:46.156Z,100387.88
2023-02-02T20:50:16.890Z,100400.66
2023-02-02T20:52:44.092Z,100392.50
2023-02-02T20:55:12.179Z,100400.66
2023-02-02T20:57:40.310Z,100406.41
2023-02-02T21:00:13.348Z,100410.53
2023-02-02T21:02:40.456Z,100425.78
2023-02-02T21:05:07.862Z,100414.78
2023-02-02T21:07:35.019Z,100420.72
2023-02-02T21:10:02.225Z,100421.63
2023-02-02T21:12:29.301Z,100421.63
2023-02-02T21:14:56.406Z,100433.41
2023-02-02T21:17:23.783Z,100440.22
2023-02-02T21:19:51.052Z,100436.13
2023-02-02T21:22:18.179Z,100441.75
2023-02-02T21:24:45.241Z,100449.06
2023-02-02T21:27:12.918Z,100458.53
2023-02-02T21:29:40.109Z,100452.81
2023-02-02T21:32:08.302Z,100460.94
2023-02-02T21:34:37.760Z,100468.28
2023-02-02T21:37:15.522Z,100476.41
2023-02-02T21:39:48.602Z,100471.69
2023-02-02T21:42:22.230Z,100483.63
2023-02-02T21:45:21.244Z,100490.63
2023-02-02T21:47:54.377Z,100479.22
2023-02-02T21:50:31.994Z,100485.94
2023-02-02T21:53:17.278Z,100483.03
2023-02-02T21:55:47.159Z,100489.56
2023-02-02T21:58:22.434Z,100489.66
2023-02-02T22:00:50.567Z,100500.31
2023-02-02T22:03:46.852Z,100501.84
2023-02-02T22:06:36.741Z,100495.00
2023-02-02T22:09:15.437Z,100496.00
2023-02-02T22:11:50.779Z,100503.31
2023-02-02T22:14:43.762Z,100507.34
2023-02-02T22:17:31.678Z,100513.75
2023-02-02T22:20:37.128Z,100519.94
2023-02-02T22:23:04.431Z,100525.91
2023-02-02T22:25:40.423Z,100533.59
2023-02-02T22:28:32.559Z,100527.50
2023-02-02T22:31:00.731Z,100540.63
2023-02-02T22:33:27.980Z,100537.41
2023-02-02T22:35:55.191Z,100539.31
2023-02-02T22:38:25.601Z,100538.09
2023-02-02T22:40:53.715Z,100531.47
2023-02-02T22:43:21.745Z,100537.91
2023-02-02T22:45:49.343Z,100551.63
2023-02-02T22:48:17.004Z,100553.53
2023-02-02T22:50:44.603Z,100553.97
2023-02-02T22:53:13.899Z,100559.69
2023-02-02T22:55:41.434Z,100563.56
2023-02-02T22:58:08.513Z,100573.47
2023-02-02T23:00:36.727Z,100569.63
2023-02-02T23:03:04.041Z,100573.69
2023-02-02T23:05:31.155Z,100575.41
2023-02-02T23:07:58.195Z,100571.78
2023-02-02T23:10:28.280Z,100578.91
2023-02-02T23:12:58.561Z,100594.06
2023-02-02T23:15:26.615Z,100594.59
2023-02-02T23:17:54.605Z,100601.28
2023-02-02T23:20:21.900Z,100606.78
2023-02-02T23:22:49.669Z,100610.75
2023-02-02T23:25:18.758Z,100621.09
2023-02-02T23:27:46.117Z,100618.16
2023-02-02T23:30:14.366Z,100618.88
2023-02-02T23:32:42.266Z,100614.47
2023-02-02T23:35:10.899Z,100614.47
2023-02-02T23:37:38.545Z,100624.50
2023-02-02T23:40:06.505Z,100623.69
2023-02-02T23:42:34.099Z,100625.84
2023-02-02T23:45:01.259Z,100629.41
2023-02-02T23:47:28.567Z,100634.28
2023-02-02T23:49:56.320Z,100633.28
2023-02-02T23:52:24.052Z,100625.34
2023-02-02T23:54:53.479Z,100636.94
2023-02-02T23:57:21.034Z,100637.47
2023-02-02T23:59:48.138Z,100638.41
